Time;durP1;ratioP1;P1;durP2;ratioP2;P2;SDS_P1;SDS_P2;PMS_P1;PMS_P2;Temp;Humidity;BMP_temperature;BMP_pressure;BME280_temperature;BME280_humidity;BME280_pressure;Samples;Min_cycle;Max_cycle;Signal;HPM_P1;HPM_P2
2023/07/18 00:02:04;;;;;;;5.32;4.30;;;;;;;21.00;96.65;97112.09;5043346;28;20211;-61
2023/07/18 00:04:30;;;;;;;6.63;4.80;;;;;;;20.98;97.14;97123.03;5042737;28;20203;-62
2023/07/18 00:07:00;;;;;;;5.78;4.68;;;;;;;20.92;98.38;97120.31;5042676;28;20203;-62
2023/07/18 00:09:28;;;;;;;9.07;4.38;;;;;;;20.87;99.80;97114.72;5043224;28;20252;-60
2023/07/18 00:11:54;;;;;;;4.82;4.22;;;;;;;20.85;98.57;97118.41;5043212;28;20207;-62
2023/07/18 00:14:22;;;;;;;6.07;4.40;;;;;;;20.88;97.37;97116.34;5042487;28;20258;-60
2023/07/18 00:16:49;;;;;;;5.57;4.40;;;;;;;20.83;96.77;97112.38;5042402;28;20334;-60
2023/07/18 00:19:16;;;;;;;6.72;4.47;;;;;;;20.75;97.13;97109.88;5042415;28;20230;-61
2023/07/18 00:21:45;;;;;;;6.28;4.55;;;;;;;20.79;96.01;97110.31;5042085;28;20246;-63
2023/07/18 00:24:11;;;;;;;5.60;4.60;;;;;;;20.76;95.37;97114.19;5042850;28;20210;-63
2023/07/18 00:26:41;;;;;;;6.03;3.90;;;;;;;20.69;97.06;97118.69;5042274;28;20215;-62
2023/07/18 00:29:07;;;;;;;4.95;4.55;;;;;;;20.71;97.31;97105.91;5041760;28;20199;-63
2023/07/18 00:31:34;;;;;;;5.25;4.43;;;;;;;20.68;96.77;97114.34;5042277;28;20212;-62
2023/07/18 00:34:00;;;;;;;7.65;4.35;;;;;;;20.64;96.96;97109.56;5041575;28;20203;-61
2023/07/18 00:36:27;;;;;;;6.63;4.35;;;;;;;20.60;98.96;97108.28;5040646;28;20212;-61
2023/07/18 00:38:54;;;;;;;4.57;3.92;;;;;;;20.62;100.00;97107.03;5041813;28;20215;-61
2023/07/18 00:41:20;;;;;;;5.03;4.40;;;;;;;20.57;100.00;97100.59;5041459;28;20207;-61
2023/07/18 00:43:48;;;;;;;5.03;4.60;;;;;;;20.58;100.00;97097.72;5040714;28;20221;-62
2023/07/18 00:46:15;;;;;;;9.38;4.60;;;;;;;20.59;99.16;97096.69;5040759;28;20298;-62
2023/07/18 00:48:42;;;;;;;5.00;4.00;;;;;;;20.58;100.00;97094.22;5040933;28;20209;-61
2023/07/18 00:51:09;;;;;;;4.88;4.28;;;;;;;20.51;100.00;97091.44;5041183;28;20254;-61
2023/07/18 00:53:37;;;;;;;4.93;4.30;;;;;;;20.52;100.00;97090.44;5041518;28;20222;-63
2023/07/18 00:56:04;;;;;;;5.07;4.38;;;;;;;20.43;100.00;97094.28;5041696;28;20211;-61
2023/07/18 00:58:33;;;;;;;6.25;4.22;;;;;;;20.44;100.00;97093.25;5040802;28;20290;-61
2023/07/18 01:01:01;;;;;;;5.68;4.13;;;;;;;20.39;100.00;97090.34;5041375;28;20234;-61
2023/07/18 01:03:29;;;;;;;5.05;4.45;;;;;;;20.33;100.00;97091.09;5040782;28;21410;-61
2023/07/18 01:05:56;;;;;;;6.38;4.50;;;;;;;20.23;100.00;97082.47;5040754;28;20202;-61
2023/07/18 01:08:24;;;;;;;5.32;4.13;;;;;;;20.29;100.00;97087.13;5040782;28;20215;-61
2023/07/18 01:10:51;;;;;;;7.15;5.18;;;;;;;20.22;100.00;97083.53;5040958;28;20214;-62
2023/07/18 01:13:18;;;;;;;4.68;4.22;;;;;;;20.20;100.00;97085.56;5040299;28;20207;-64
2023/07/18 01:15:44;;;;;;;5.97;4.78;;;;;;;20.11;100.00;97092.09;5040431;28;20246;-61
2023/07/18 01:18:13;;;;;;;5.70;4.75;;;;;;;20.07;100.00;97086.28;5040785;28;20208;-62
2023/07/18 01:20:44;;;;;;;4.78;4.38;;;;;;;20.08;100.00;97081.75;5041522;28;20246;-61
2023/07/18 01:23:12;;;;;;;5.32;4.80;;;;;;;19.98;100.00;97082.03;5039663;28;20526;-60
2023/07/18 01:25:39;;;;;;;6.50;5.28;;;;;;;20.02;100.00;97074.44;5041321;28;20214;-61
2023/07/18 01:28:08;;;;;;;8.70;4.85;;;;;;;19.93;100.00;97073.75;5039470;28;20207;-62
2023/07/18 01:30:34;;;;;;;7.07;4.90;;;;;;;19.87;100.00;97069.94;5040881;28;20257;-61
2023/07/18 01:33:01;;;;;;;6.78;4.82;;;;;;;19.78;100.00;97071.09;5040737;28;20250;-61
2023/07/18 01:35:28;;;;;;;5.75;4.40;;;;;;;19.81;100.00;97069.88;5040925;28;20264;-62
2023/07/18 01:37:56;;;;;;;5.05;4.53;;;;;;;19.78;100.00;97070.28;5039753;28;20239;-60
2023/07/18 01:40:24;;;;;;;5.40;4.90;;;;;;;19.75;100.00;97063.44;5040929;28;20545;-61
2023/07/18 01:42:53;;;;;;;6.85;5.22;;;;;;;19.67;100.00;97071.59;5040167;28;20204;-61
2023/07/18 01:45:22;;;;;;;5.00;4.50;;;;;;;19.62;100.00;97065.97;5040643;28;20207;-62
2023/07/18 01:47:50;;;;;;;6.28;4.90;;;;;;;19.57;100.00;97073.75;5041132;28;20204;-61
2023/07/18 01:50:17;;;;;;;8.88;4.80;;;;;;;19.51;100.00;97068.31;5049800;28;20199;-63
2023/07/18 01:52:44;;;;;;;5.95;5.13;;;;;;;19.55;100.00;97075.81;5062515;28;20252;-63
2023/07/18 01:55:10;;;;;;;6.20;5.03;;;;;;;19.48;100.00;97074.91;5062733;28;20227;-63
2023/07/18 01:57:46;;;;;;;6.88;4.90;;;;;;;19.46;100.00;97076.09;5056190;28;20214;-61
2023/07/18 02:00:17;;;;;;;6.10;5.50;;;;;;;19.46;100.00;97076.91;5047562;28;20230;-62
2023/07/18 02:02:45;;;;;;;5.20;4.70;;;;;;;19.39;100.00;97071.44;5046244;28;20286;-63
2023/07/18 02:05:13;;;;;;;5.78;4.63;;;;;;;19.33;100.00;97066.84;5045465;28;20215;-61
2023/07/18 02:07:39;;;;;;;7.30;5.00;;;;;;;19.35;100.00;97066.63;5045873;28;20203;-61
2023/07/18 02:10:06;;;;;;;6.05;4.93;;;;;;;19.29;100.00;97062.03;5045384;28;20203;-62
2023/07/18 02:12:33;;;;;;;8.13;5.65;;;;;;;19.23;100.00;97068.97;5045104;28;20219;-61
2023/07/18 02:15:01;;;;;;;6.35;4.60;;;;;;;19.27;100.00;97072.13;5043109;28;20195;-63
2023/07/18 02:17:29;;;;;;;5.80;4.97;;;;;;;19.26;100.00;97070.44;5045033;28;20717;-61
2023/07/18 02:19:56;;;;;;;6.80;5.05;;;;;;;19.23;100.00;97066.31;5044671;28;20226;-61
2023/07/18 02:22:23;;;;;;;7.00;4.75;;;;;;;19.18;100.00;97066.00;5044336;28;20218;-62
2023/07/18 02:24:49;;;;;;;5.25;4.43;;;;;;;19.10;100.00;97065.28;5044482;28;20211;-62
2023/07/18 02:27:15;;;;;;;6.95;5.13;;;;;;;19.11;100.00;97061.56;5044635;28;20200;-61
2023/07/18 02:29:42;;;;;;;7.15;4.85;;;;;;;19.10;100.00;97066.09;5044181;28;20640;-62
2023/07/18 02:32:10;;;;;;;6.00;4.50;;;;;;;19.12;100.00;97063.25;5043967;28;20648;-61
2023/07/18 02:34:38;;;;;;;6.30;4.63;;;;;;;19.12;100.00;97073.97;5044340;28;20648;-62
2023/07/18 02:37:05;;;;;;;6.65;4.70;;;;;;;19.05;100.00;97063.16;5043639;28;20206;-61
2023/07/18 02:39:32;;;;;;;6.28;4.70;;;;;;;18.97;100.00;97082.00;5043916;28;20218;-61
2023/07/18 02:41:59;;;;;;;5.30;4.75;;;;;;;19.02;100.00;97068.06;5043536;28;20208;-61
2023/07/18 02:44:25;;;;;;;6.65;4.93;;;;;;;19.03;100.00;97064.34;5042790;28;20652;-61
2023/07/18 02:46:52;;;;;;;5.18;4.53;;;;;;;19.00;100.00;97070.09;5043334;28;20207;-61
2023/07/18 02:49:20;;;;;;;5.25;4.70;;;;;;;18.91;100.00;97076.56;5043089;28;20200;-61
2023/07/18 02:51:47;;;;;;;4.65;4.25;;;;;;;18.94;100.00;97076.19;5043531;28;20199;-60
2023/07/18 02:54:13;;;;;;;7.30;4.55;;;;;;;18.91;100.00;97076.56;5043132;28;20218;-61
2023/07/18 02:56:40;;;;;;;5.57;4.70;;;;;;;18.88;100.00;97073.22;5042842;28;20592;-61
2023/07/18 02:59:07;;;;;;;5.93;4.18;;;;;;;18.92;100.00;97072.88;5042029;28;20216;-62
2023/07/18 03:01:34;;;;;;;7.28;4.70;;;;;;;18.93;100.00;97070.00;5043369;28;20310;-62
2023/07/18 03:04:00;;;;;;;5.43;4.93;;;;;;;18.94;100.00;97069.00;5042845;28;20211;-62
2023/07/18 03:06:28;;;;;;;6.40;4.75;;;;;;;18.93;100.00;97074.53;5042862;28;20204;-62
2023/07/18 03:08:55;;;;;;;5.43;4.93;;;;;;;18.89;100.00;97061.50;5042245;28;20294;-62
2023/07/18 03:11:21;;;;;;;5.50;4.50;;;;;;;18.84;100.00;97065.75;5043219;28;20556;-61
2023/07/18 03:13:50;;;;;;;5.45;4.95;;;;;;;18.81;100.00;97058.88;5042273;28;20291;-61
2023/07/18 03:16:16;;;;;;;7.50;4.88;;;;;;;18.77;100.00;97060.31;5041842;28;20257;-60
2023/07/18 03:18:43;;;;;;;5.10;4.57;;;;;;;18.75;100.00;97054.28;5042976;28;20216;-61
2023/07/18 03:21:09;;;;;;;4.80;4.40;;;;;;;18.72;100.00;97062.69;5042616;28;20226;-63
2023/07/18 03:23:39;;;;;;;6.10;4.63;;;;;;;18.69;100.00;97052.34;5042804;28;20207;-63
2023/07/18 03:26:07;;;;;;;7.45;4.65;;;;;;;18.60;100.00;97063.34;5042468;28;20206;-60
2023/07/18 03:28:33;;;;;;;5.47;4.78;;;;;;;18.60;100.00;97064.13;5041868;28;20245;-61
2023/07/18 03:31:00;;;;;;;6.90;4.70;;;;;;;18.58;100.00;97063.50;5042647;28;20211;-61
2023/07/18 03:33:27;;;;;;;7.57;4.90;;;;;;;18.52;100.00;97060.72;5047412;28;20218;-61
2023/07/18 03:35:53;;;;;;;5.93;4.60;;;;;;;18.56;100.00;97059.34;5046665;28;20219;-63
2023/07/18 03:38:19;;;;;;;6.35;4.68;;;;;;;18.51;100.00;97059.88;5044043;28;20207;-61
2023/07/18 03:40:50;;;;;;;5.55;4.93;;;;;;;18.45;100.00;97057.06;5041995;28;20223;-61
2023/07/18 03:43:18;;;;;;;6.43;4.63;;;;;;;18.37;100.00;97056.16;5042176;28;20260;-61
2023/07/18 03:45:45;;;;;;;6.28;4.53;;;;;;;18.37;100.00;97063.34;5042018;28;20195;-60
2023/07/18 03:48:11;;;;;;;7.78;4.78;;;;;;;18.36;100.00;97061.66;5041494;28;20531;-62
2023/07/18 03:50:38;;;;;;;6.30;4.70;;;;;;;18.38;100.00;97044.44;5042498;28;20222;-61
2023/07/18 03:53:06;;;;;;;7.53;5.25;;;;;;;18.42;100.00;97050.25;5042870;28;20211;-62
2023/07/18 03:55:33;;;;;;;7.53;4.65;;;;;;;18.40;100.00;97053.09;5045120;28;20295;-61
2023/07/18 03:58:01;;;;;;;7.53;5.03;;;;;;;18.42;100.00;97046.75;5048841;28;20183;-63
2023/07/18 04:00:27;;;;;;;6.47;5.07;;;;;;;18.40;100.00;97044.22;5062185;28;20230;-63
2023/07/18 04:02:54;;;;;;;5.93;5.35;;;;;;;18.46;100.00;97042.69;5060709;28;20203;-62
2023/07/18 04:05:23;;;;;;;5.38;4.78;;;;;;;18.44;100.00;97042.84;5050202;28;20196;-61
2023/07/18 04:07:51;;;;;;;7.40;4.70;;;;;;;18.40;100.00;97041.53;5045584;28;20207;-62
2023/07/18 04:10:18;;;;;;;4.82;4.32;;;;;;;18.34;100.00;97042.28;5044792;28;20208;-61
2023/07/18 04:12:45;;;;;;;5.05;4.55;;;;;;;18.32;100.00;97052.31;5041494;28;20212;-62
2023/07/18 04:15:13;;;;;;;5.43;4.35;;;;;;;18.32;100.00;97049.66;5041673;28;20269;-61
2023/07/18 04:17:39;;;;;;;5.40;4.55;;;;;;;18.34;100.00;97045.78;5042365;28;20548;-61
2023/07/18 04:20:07;;;;;;;6.75;5.13;;;;;;;18.28;100.00;97037.66;5041504;28;20964;-62
2023/07/18 04:22:33;;;;;;;6.38;4.30;;;;;;;18.29;100.00;97040.13;5040913;28;20635;-60
2023/07/18 04:25:00;;;;;;;4.90;4.40;;;;;;;18.25;100.00;97032.66;5041686;28;20208;-62
2023/07/18 04:27:27;;;;;;;8.55;4.50;;;;;;;18.25;100.00;97036.16;5041730;28;20203;-63
2023/07/18 04:29:54;;;;;;;8.98;4.75;;;;;;;18.29;100.00;97036.63;5041318;28;20289;-62
2023/07/18 04:32:21;;;;;;;5.60;4.20;;;;;;;18.29;100.00;97025.91;5041604;28;20211;-63
2023/07/18 04:34:48;;;;;;;5.53;4.70;;;;;;;18.38;100.00;97032.88;5041536;28;20212;-64
2023/07/18 04:37:15;;;;;;;4.93;4.35;;;;;;;18.33;100.00;97024.53;5041536;28;20261;-63
2023/07/18 04:39:41;;;;;;;5.85;4.53;;;;;;;18.36;100.00;97024.19;5041518;28;20284;-63
2023/07/18 04:42:08;;;;;;;5.38;4.70;;;;;;;18.34;100.00;97019.03;5041027;28;20227;-63
2023/07/18 04:44:34;;;;;;;6.30;5.15;;;;;;;18.48;100.00;97016.53;5040706;28;20207;-63
2023/07/18 04:47:01;;;;;;;4.80;4.40;;;;;;;18.53;100.00;97022.22;5041141;28;20208;-64
2023/07/18 04:49:30;;;;;;;7.03;4.57;;;;;;;18.58;100.00;97025.16;5041107;28;20295;-63
2023/07/18 04:51:56;;;;;;;5.80;4.65;;;;;;;18.64;100.00;97033.28;5041159;28;20207;-63
2023/07/18 04:54:22;;;;;;;5.90;4.60;;;;;;;18.73;100.00;97028.69;5040834;28;20296;-62
2023/07/18 04:56:53;;;;;;;5.22;4.70;;;;;;;18.75;100.00;97024.81;5041148;28;20222;-64
2023/07/18 04:59:19;;;;;;;6.80;5.07;;;;;;;18.81;100.00;97024.06;5040358;28;20644;-63
2023/07/18 05:01:46;;;;;;;6.60;5.10;;;;;;;18.87;100.00;97028.69;5041767;28;20561;-64
2023/07/18 05:04:12;;;;;;;5.78;5.13;;;;;;;18.95;100.00;97018.91;5042635;28;20214;-63
2023/07/18 05:06:40;;;;;;;4.47;4.18;;;;;;;19.05;100.00;97024.81;5042690;28;20206;-63
2023/07/18 05:09:08;;;;;;;5.55;4.30;;;;;;;19.10;100.00;97025.06;5041861;28;20230;-63
2023/07/18 05:11:34;;;;;;;5.47;4.40;;;;;;;19.15;100.00;97019.97;5040543;28;20699;-62
2023/07/18 05:14:01;;;;;;;7.18;4.60;;;;;;;19.18;100.00;97000.81;5040400;28;20593;-63
2023/07/18 05:16:27;;;;;;;6.10;4.80;;;;;;;19.21;100.00;97003.13;5039541;28;20239;-63
2023/07/18 05:18:54;;;;;;;4.47;4.10;;;;;;;19.33;100.00;97007.84;5040680;28;20265;-65
2023/07/18 05:21:20;;;;;;;6.53;4.65;;;;;;;19.46;100.00;97004.50;5040617;28;20235;-63
2023/07/18 05:23:48;;;;;;;5.35;3.97;;;;;;;19.59;100.00;96993.91;5042895;28;20207;-61
2023/07/18 05:26:15;;;;;;;4.30;3.90;;;;;;;19.72;100.00;96996.72;5045206;28;20233;-64
2023/07/18 05:28:41;;;;;;;3.90;3.60;;;;;;;19.81;95.58;96995.56;5044212;28;20265;-63
2023/07/18 05:31:09;;;;;;;5.57;4.10;;;;;;;19.92;92.70;96993.38;5044720;28;20215;-64
2023/07/18 05:33:35;;;;;;;4.28;3.88;;;;;;;20.08;93.37;96995.81;5044864;28;20196;-62
2023/07/18 05:36:02;;;;;;;4.40;3.70;;;;;;;20.21;92.13;96999.44;5044173;28;20204;-62
2023/07/18 05:38:28;;;;;;;3.78;3.47;;;;;;;20.34;90.84;96999.56;5045340;28;20211;-63
2023/07/18 05:40:56;;;;;;;4.18;3.70;;;;;;;20.45;89.17;97003.56;5044591;28;20319;-64
2023/07/18 05:43:22;;;;;;;4.32;3.90;;;;;;;20.53;89.00;96990.00;5044046;28;20204;-62
2023/07/18 05:45:50;;;;;;;6.32;4.22;;;;;;;20.67;88.04;96989.06;5043900;28;20667;-63
2023/07/18 05:48:16;;;;;;;6.03;3.65;;;;;;;20.72;86.58;96991.16;5044618;28;20722;-62
2023/07/18 05:50:43;;;;;;;4.03;3.63;;;;;;;20.74;85.36;96989.09;5044011;28;20652;-63
2023/07/18 05:53:09;;;;;;;4.78;3.83;;;;;;;20.89;83.39;96987.09;5044503;28;20227;-63
2023/07/18 05:55:36;;;;;;;4.00;3.60;;;;;;;21.05;82.51;96984.06;5043640;28;20647;-62
2023/07/18 05:58:04;;;;;;;7.05;4.13;;;;;;;21.21;82.28;96977.56;5043876;28;20298;-64
2023/07/18 06:00:30;;;;;;;4.57;4.03;;;;;;;21.35;82.40;96984.66;5044058;28;20211;-62
2023/07/18 06:02:57;;;;;;;5.97;3.70;;;;;;;21.49;80.81;96980.13;5044294;28;20697;-62
2023/07/18 06:05:23;;;;;;;4.60;4.05;;;;;;;21.64;81.85;96984.31;5043923;28;20632;-63
2023/07/18 06:07:51;;;;;;;5.82;3.97;;;;;;;21.80;80.48;96975.00;5045518;28;20593;-63
2023/07/18 06:10:17;;;;;;;5.55;4.20;;;;;;;21.95;79.81;96975.69;5051022;28;20250;-63
2023/07/18 06:12:44;;;;;;;6.28;4.32;;;;;;;22.14;79.37;96984.81;5048352;28;20656;-62
2023/07/18 06:15:12;;;;;;;5.22;4.07;;;;;;;22.21;77.52;96977.56;5047768;28;20219;-64
2023/07/18 06:17:39;;;;;;;5.70;4.50;;;;;;;22.26;76.07;96980.47;5046643;28;20215;-62
2023/07/18 06:20:11;;;;;;;9.90;4.70;;;;;;;22.42;77.45;96982.75;5044097;28;20574;-62
2023/07/18 06:22:38;;;;;;;5.65;3.95;;;;;;;22.64;76.01;96977.91;5043909;28;20268;-63
2023/07/18 06:25:06;;;;;;;4.90;4.40;;;;;;;22.77;75.43;96968.00;5046315;28;20204;-62
2023/07/18 06:27:33;;;;;;;5.20;4.45;;;;;;;22.90;74.26;96968.97;5045861;28;20277;-64
2023/07/18 06:30:00;;;;;;;6.47;3.80;;;;;;;22.94;74.54;96971.03;5045790;28;20214;-61
2023/07/18 06:32:28;;;;;;;4.20;3.90;;;;;;;23.11;74.94;96960.59;5044465;28;20203;-64
2023/07/18 06:34:55;;;;;;;4.10;3.65;;;;;;;23.24;73.37;96957.84;5044294;28;20246;-64
2023/07/18 06:37:21;;;;;;;4.53;4.10;;;;;;;23.39;72.21;96962.97;5050191;28;20207;-64
2023/07/18 06:39:50;;;;;;;4.93;4.03;;;;;;;23.55;73.86;96955.25;5053353;28;20199;-64
2023/07/18 06:42:16;;;;;;;5.28;3.50;;;;;;;23.68;71.78;96949.75;5054686;28;20215;-62
2023/07/18 06:44:44;;;;;;;4.78;3.90;;;;;;;23.78;75.77;96952.78;5055332;28;20861;-63
2023/07/18 06:47:11;;;;;;;6.18;4.18;;;;;;;23.90;71.63;96954.78;5053886;28;20219;-64
2023/07/18 06:49:39;;;;;;;6.43;4.30;;;;;;;24.02;72.43;96950.34;5048834;28;20592;-63
2023/07/18 06:52:06;;;;;;;7.38;4.15;;;;;;;24.01;70.05;96952.22;5044127;28;20195;-62
2023/07/18 06:54:32;;;;;;;6.10;4.28;;;;;;;24.09;71.87;96943.00;5044109;28;20222;-63
2023/07/18 06:57:00;;;;;;;5.75;4.10;;;;;;;24.25;71.78;96935.19;5044341;28;20214;-62
2023/07/18 06:59:26;;;;;;;5.32;4.28;;;;;;;24.38;70.34;96942.34;5044084;28;20208;-62
2023/07/18 07:01:53;;;;;;;5.00;4.25;;;;;;;24.45;68.73;96937.72;5044279;28;20231;-62
2023/07/18 07:04:19;;;;;;;7.05;4.00;;;;;;;24.47;70.06;96930.22;5043139;28;20204;-61
2023/07/18 07:06:49;;;;;;;4.70;3.97;;;;;;;24.64;70.39;96931.28;5043063;28;20222;-62
2023/07/18 07:09:15;;;;;;;6.75;4.53;;;;;;;24.87;69.55;96925.22;5043243;28;20200;-62
2023/07/18 07:11:42;;;;;;;5.55;4.50;;;;;;;25.03;68.64;96924.63;5043181;28;20200;-63
2023/07/18 07:14:08;;;;;;;6.03;4.32;;;;;;;25.22;68.11;96928.13;5044692;28;20195;-62
2023/07/18 07:16:35;;;;;;;4.40;4.07;;;;;;;25.42;67.87;96919.75;5043023;28;20240;-63
2023/07/18 07:19:02;;;;;;;5.97;4.35;;;;;;;25.56;66.42;96916.66;5044980;28;20639;-63
2023/07/18 07:21:29;;;;;;;4.93;4.00;;;;;;;25.50;66.56;96917.56;5045467;28;20742;-63
2023/07/18 07:23:58;;;;;;;8.20;4.70;;;;;;;25.70;64.68;96909.97;5044294;28;20207;-63
2023/07/18 07:26:25;;;;;;;4.95;4.30;;;;;;;25.82;64.26;96906.47;5043082;28;20211;-63
2023/07/18 07:28:51;;;;;;;7.32;4.78;;;;;;;25.98;65.03;96906.63;5041922;28;20218;-64
2023/07/18 07:31:18;;;;;;;8.60;4.50;;;;;;;26.02;66.72;96910.50;5042204;28;20286;-62
2023/07/18 07:33:44;;;;;;;6.80;4.82;;;;;;;26.04;65.22;96910.28;5042235;28;20207;-62
2023/07/18 07:36:10;;;;;;;5.65;4.28;;;;;;;26.14;66.75;96907.81;5042265;28;20592;-64
2023/07/18 07:38:37;;;;;;;6.10;4.35;;;;;;;26.18;67.14;96901.72;5042627;28;21346;-62
2023/07/18 07:41:06;;;;;;;6.10;4.55;;;;;;;26.37;65.29;96894.28;5042129;28;20234;-61
2023/07/18 07:43:32;;;;;;;6.10;4.40;;;;;;;26.42;64.31;96891.72;5041730;28;20226;-62
2023/07/18 07:45:59;;;;;;;6.00;4.60;;;;;;;26.33;64.52;96890.41;5041435;28;20218;-63
2023/07/18 07:48:25;;;;;;;10.05;4.28;;;;;;;26.51;64.66;96890.28;5042294;28;20257;-61
2023/07/18 07:50:52;;;;;;;7.50;4.85;;;;;;;26.64;63.98;96879.16;5042064;28;20262;-63
2023/07/18 07:53:18;;;;;;;6.38;4.70;;;;;;;26.60;64.46;96875.31;5041706;28;20203;-62
2023/07/18 07:55:45;;;;;;;6.25;4.53;;;;;;;26.75;64.79;96873.97;5041964;28;20269;-62
2023/07/18 07:58:13;;;;;;;4.68;4.28;;;;;;;26.87;63.35;96875.63;5041672;28;20203;-63
2023/07/18 08:00:39;;;;;;;8.52;4.72;;;;;;;26.97;63.20;96873.09;5041701;28;20558;-62
2023/07/18 08:03:05;;;;;;;6.10;4.75;;;;;;;27.02;63.48;96873.22;5042036;28;20219;-62
2023/07/18 08:05:32;;;;;;;5.38;4.60;;;;;;;27.28;62.92;96868.28;5041844;28;20203;-61
2023/07/18 08:07:58;;;;;;;5.15;4.68;;;;;;;27.29;61.63;96870.75;5041405;28;20211;-63
2023/07/18 08:10:25;;;;;;;6.82;4.70;;;;;;;27.23;62.18;96860.03;5041510;28;20304;-64
2023/07/18 08:12:52;;;;;;;5.20;4.65;;;;;;;27.30;62.83;96861.53;5041858;28;20301;-61
2023/07/18 08:15:21;;;;;;;5.50;4.63;;;;;;;27.36;62.73;96855.13;5045375;28;20231;-63
2023/07/18 08:17:48;;;;;;;8.57;4.82;;;;;;;27.33;63.38;96849.38;5051696;28;20258;-65
2023/07/18 08:20:14;;;;;;;7.55;5.05;;;;;;;27.56;64.27;96852.81;5059024;28;20206;-64
2023/07/18 08:22:41;;;;;;;4.88;4.40;;;;;;;27.65;59.86;96842.38;5055113;28;20227;-62
2023/07/18 08:25:08;;;;;;;8.60;4.88;;;;;;;27.65;61.17;96851.34;5048804;28;20296;-64
2023/07/18 08:27:35;;;;;;;7.90;5.07;;;;;;;27.72;61.19;96845.75;5047210;28;21196;-63
2023/07/18 08:30:02;;;;;;;6.78;5.00;;;;;;;27.26;62.92;96845.97;5045689;28;20211;-64
2023/07/18 08:32:32;;;;;;;5.47;4.75;;;;;;;27.54;62.67;96848.69;5047111;28;20203;-64
2023/07/18 08:34:59;;;;;;;5.25;4.75;;;;;;;27.79;63.39;96843.69;5044138;28;20270;-62
2023/07/18 08:37:27;;;;;;;6.57;4.85;;;;;;;27.61;64.92;96842.03;5045331;28;20203;-63
2023/07/18 08:39:53;;;;;;;7.45;4.55;;;;;;;27.44;62.69;96835.72;5044581;28;20234;-63
2023/07/18 08:42:21;;;;;;;6.97;5.20;;;;;;;27.53;63.12;96839.72;5043494;28;20223;-62
2023/07/18 08:44:49;;;;;;;6.65;4.72;;;;;;;27.75;63.11;96831.66;5044298;28;20207;-65
2023/07/18 08:47:16;;;;;;;6.35;4.63;;;;;;;27.93;63.74;96827.88;5044563;28;20205;-62
2023/07/18 08:49:44;;;;;;;5.38;4.85;;;;;;;28.10;62.28;96839.59;5047861;28;20214;-62
2023/07/18 08:52:11;;;;;;;5.13;4.72;;;;;;;28.21;61.46;96846.00;5049102;28;20261;-62
2023/07/18 08:54:37;;;;;;;5.65;4.63;;;;;;;28.24;62.58;96846.31;5044040;28;20295;-63
2023/07/18 08:57:05;;;;;;;5.88;4.70;;;;;;;28.27;62.28;96845.03;5047001;28;20214;-61
2023/07/18 08:59:34;;;;;;;6.55;4.88;;;;;;;28.28;66.11;96839.31;5048085;28;20199;-62
2023/07/18 09:02:01;;;;;;;5.43;4.93;;;;;;;28.38;61.53;96839.47;5045268;28;20230;-63
2023/07/18 09:04:27;;;;;;;8.40;5.43;;;;;;;28.14;61.11;96840.75;5045604;28;20244;-64
2023/07/18 09:06:58;;;;;;;8.38;5.47;;;;;;;28.20;62.25;96825.34;5044980;28;20635;-61
2023/07/18 09:09:26;;;;;;;5.75;4.70;;;;;;;28.26;62.89;96810.72;5045180;28;20214;-61
2023/07/18 09:11:56;;;;;;;5.97;5.15;;;;;;;28.23;64.54;96795.75;5045665;28;20210;-64
2023/07/18 09:14:24;;;;;;;7.75;5.10;;;;;;;28.29;62.85;96781.13;5045506;28;20550;-63
2023/07/18 09:16:52;;;;;;;7.32;4.80;;;;;;;28.50;61.13;96774.06;5045828;28;20683;-62
2023/07/18 09:19:21;;;;;;;9.90;5.43;;;;;;;28.23;60.72;96778.59;5045997;28;20214;-61
2023/07/18 09:21:48;;;;;;;8.02;5.20;;;;;;;27.71;60.79;96765.28;5044784;28;20229;-63
2023/07/18 09:24:16;;;;;;;6.13;5.00;;;;;;;27.46;64.16;96803.72;5044815;28;20203;-62
2023/07/18 09:26:43;;;;;;;8.02;5.35;;;;;;;27.11;69.58;96814.75;5042950;28;20289;-63
2023/07/18 09:29:10;;;;;;;8.45;5.63;;;;;;;26.92;69.45;96812.47;5044124;28;20768;-62
2023/07/18 09:31:38;;;;;;;7.75;5.30;;;;;;;27.30;68.74;96790.09;5044751;28;20235;-62
2023/07/18 09:34:11;;;;;;;6.43;5.05;;;;;;;27.53;68.59;96788.09;5044619;28;20515;-64
2023/07/18 09:36:38;;;;;;;5.47;4.97;;;;;;;27.59;63.82;96778.16;5044484;28;20288;-62
2023/07/18 09:39:07;;;;;;;9.07;5.43;;;;;;;27.81;65.55;96776.31;5044757;28;20253;-62
2023/07/18 09:41:38;;;;;;;6.05;4.85;;;;;;;28.07;65.56;96783.00;5044698;28;20195;-64
2023/07/18 09:44:07;;;;;;;6.35;5.20;;;;;;;28.23;64.92;96779.44;5044016;28;20208;-61
2023/07/18 09:46:34;;;;;;;6.45;5.30;;;;;;;28.26;63.99;96772.66;5044708;28;20258;-62
2023/07/18 09:49:02;;;;;;;5.82;5.28;;;;;;;28.42;65.60;96777.22;5044292;28;20207;-62
2023/07/18 09:51:30;;;;;;;6.22;5.25;;;;;;;28.46;62.70;96781.06;5045027;28;20207;-62
2023/07/18 09:53:58;;;;;;;9.60;5.57;;;;;;;28.36;62.32;96789.94;5043854;28;20200;-63
2023/07/18 09:56:25;;;;;;;7.40;5.30;;;;;;;28.38;64.27;96806.81;5044031;28;20585;-63
2023/07/18 09:58:54;;;;;;;5.70;4.95;;;;;;;28.37;63.94;96818.78;5043832;28;20230;-62
2023/07/18 10:01:22;;;;;;;5.68;5.00;;;;;;;28.32;63.62;96835.03;5043896;28;20287;-62
2023/07/18 10:03:49;;;;;;;6.45;5.50;;;;;;;28.15;63.82;96847.84;5043697;28;20227;-63
2023/07/18 10:06:16;;;;;;;6.20;5.50;;;;;;;28.09;63.78;96851.56;5044496;28;20242;-63
2023/07/18 10:08:44;;;;;;;6.38;5.60;;;;;;;28.20;67.02;96839.75;5045574;28;20682;-62
2023/07/18 10:11:11;;;;;;;5.90;5.30;;;;;;;28.33;63.54;96828.53;5046058;28;20294;-62
2023/07/18 10:13:42;;;;;;;6.88;5.38;;;;;;;28.47;66.80;96818.94;5042273;28;20210;-62
2023/07/18 10:16:21;;;;;;;5.70;5.13;;;;;;;28.68;63.85;96817.31;5043762;28;20243;-64
2023/07/18 10:18:49;;;;;;;6.13;5.47;;;;;;;28.79;64.05;96810.09;5044748;28;20199;-64
2023/07/18 10:21:28;;;;;;;7.22;5.40;;;;;;;28.84;64.76;96799.28;5044067;28;20215;-63
2023/07/18 10:23:58;;;;;;;5.97;4.93;;;;;;;29.05;64.28;96790.28;5058105;28;20218;-67
2023/07/18 10:26:30;;;;;;;6.68;5.30;;;;;;;29.19;63.38;96783.34;5047640;28;20283;-64
2023/07/18 10:29:00;;;;;;;13.27;5.82;;;;;;;29.18;60.36;96789.84;5049552;28;20226;-62
2023/07/18 10:31:29;;;;;;;6.38;5.47;;;;;;;29.17;59.66;96778.13;5047688;28;20200;-60
2023/07/18 10:34:06;;;;;;;5.50;4.80;;;;;;;29.24;60.71;96761.56;5044867;28;20235;-61
2023/07/18 10:36:34;;;;;;;6.35;4.93;;;;;;;29.29;61.65;96764.38;5044435;28;20222;-63
2023/07/18 10:39:08;;;;;;;5.15;4.47;;;;;;;29.35;59.33;96760.63;5044933;28;20196;-62
2023/07/18 10:41:35;;;;;;;6.07;4.80;;;;;;;29.46;62.63;96750.63;5044936;28;20195;-64
2023/07/18 10:44:01;;;;;;;7.00;4.72;;;;;;;29.30;60.06;96744.22;5043961;28;20220;-63
2023/07/18 10:46:38;;;;;;;5.95;5.35;;;;;;;29.37;59.82;96744.03;5045187;28;20207;-62
2023/07/18 10:49:05;;;;;;;6.68;4.43;;;;;;;29.39;57.96;96758.19;5045010;28;20215;-61
2023/07/18 10:51:31;;;;;;;5.10;4.65;;;;;;;29.38;57.41;96770.19;5045469;28;20210;-63
2023/07/18 10:53:59;;;;;;;5.25;4.75;;;;;;;29.15;58.57;96802.09;5044218;28;20648;-61
2023/07/18 10:56:29;;;;;;;5.80;5.15;;;;;;;28.91;57.95;96841.56;5045538;28;20296;-62
2023/07/18 10:58:56;;;;;;;5.43;4.88;;;;;;;28.66;59.75;96929.13;5044161;28;20237;-62
2023/07/18 11:01:26;;;;;;;5.13;4.63;;;;;;;28.21;61.89;97025.50;5045434;28;20203;-61
2023/07/18 11:03:55;;;;;;;5.75;5.05;;;;;;;27.62;63.34;97066.50;5044066;28;20232;-63
2023/07/18 11:06:22;;;;;;;6.13;4.63;;;;;;;27.34;65.40;97107.16;5044655;28;20211;-62
2023/07/18 11:08:49;;;;;;;7.00;4.82;;;;;;;27.08;66.73;97124.75;5044447;28;20638;-62
2023/07/18 11:11:19;;;;;;;6.78;5.10;;;;;;;26.81;67.33;97111.84;5044585;28;20551;-63
2023/07/18 11:13:50;;;;;;;4.97;4.45;;;;;;;26.54;67.53;97090.53;5043914;28;20208;-64
2023/07/18 11:16:16;;;;;;;7.88;4.95;;;;;;;26.39;69.17;97109.16;5043820;28;20238;-62
2023/07/18 11:18:45;;;;;;;5.03;4.43;;;;;;;26.22;71.34;97098.13;5044323;28;20648;-61
2023/07/18 11:21:14;;;;;;;7.70;4.85;;;;;;;26.09;75.25;97092.03;5042813;28;20214;-65
2023/07/18 11:23:43;;;;;;;6.90;5.35;;;;;;;25.83;94.02;97044.41;5043406;28;20228;-62
2023/07/18 11:26:12;;;;;;;6.90;5.63;;;;;;;25.51;92.59;96856.91;5043244;28;20526;-61
2023/07/18 11:28:39;;;;;;;5.93;5.05;;;;;;;25.20;93.25;96724.50;5042501;28;20294;-62
2023/07/18 11:31:06;;;;;;;7.13;5.43;;;;;;;25.15;94.07;96847.00;5043163;28;20207;-64